Aqua Ramon, Colorado
Current Conditions -  °F | °C
As of 1:30 AM on Thursday 23 Oct 2014 (Local Time) from KRCV Reporting Station
Clear Clear  
Wind Chill: 33°   Ceiling: Unl
Heat Index: 40°   Visibility: 10mi
Dew Point: 32°   Wind: 12mph
Humidity: 74%   Direction: 250°WSW
Pressure: 30.32"   Gusts: NA
Location:  37.6359°N, 106.449°W
Report Text: KRCV 230730Z AUTO 25010KT 10SM CLR 04/00 A3032 RMK AO2 T00430000
Loading
Personal Weather Stations






























Interactive Weather Map
Tropical Storm Tracking
New forecast layout! Learn more

10-Day Weather Forecast

Advertisements
Track Severe Weather on mobile